createdAt,value
2018-04-01T00:00:38.958Z,2.50
2018-04-01T00:05:30.147Z,2.60
2018-04-01T00:10:21.378Z,2.40
2018-04-01T00:15:12.562Z,2.37
2018-04-01T00:20:04.516Z,2.63
2018-04-01T00:24:55.684Z,2.53
2018-04-01T00:29:46.869Z,2.80
2018-04-01T00:34:38.061Z,2.93
2018-04-01T00:39:29.948Z,2.50
2018-04-01T00:44:21.748Z,2.53
2018-04-01T00:49:13.950Z,2.60
2018-04-01T00:54:05.109Z,3.10
2018-04-01T00:58:56.350Z,3.50
2018-04-01T01:03:48.271Z,4.13
2018-04-01T01:08:39.441Z,4.97
2018-04-01T01:13:30.627Z,4.80
2018-04-01T01:18:21.821Z,4.50
2018-04-01T01:23:12.989Z,4.03
2018-04-01T01:28:05.561Z,4.00
2018-04-01T01:32:57.489Z,4.07
2018-04-01T01:37:48.710Z,3.60
2018-04-01T01:42:39.925Z,3.30
2018-04-01T01:47:31.144Z,3.60
2018-04-01T01:52:22.627Z,3.93
2018-04-01T01:57:14.607Z,3.73
2018-04-01T02:02:05.834Z,3.90
2018-04-01T02:06:57.013Z,3.60
2018-04-01T02:11:48.917Z,4.17
2018-04-01T02:16:40.134Z,3.97
2018-04-01T02:21:31.327Z,4.33
2018-04-01T02:26:23.263Z,4.10
2018-04-01T02:31:15.190Z,3.80
2018-04-01T02:36:07.111Z,4.53
2018-04-01T02:40:59.014Z,4.77
2018-04-01T02:45:50.212Z,4.70
2018-04-01T02:50:42.145Z,5.10
2018-04-01T02:55:34.086Z,4.90
2018-04-01T03:00:25.326Z,5.53
2018-04-01T03:05:17.247Z,6.03
2018-04-01T03:10:09.894Z,5.93
2018-04-01T03:15:01.093Z,7.03
2018-04-01T03:19:52.288Z,6.50
2018-04-01T03:24:44.215Z,7.17
2018-04-01T03:29:36.171Z,6.70
2018-04-01T03:34:28.095Z,6.57
2018-04-01T03:39:20.013Z,7.90
2018-04-01T03:44:11.189Z,8.13
2018-04-01T03:49:03.147Z,7.60
2018-04-01T03:53:54.312Z,8.37
2018-04-01T03:58:45.492Z,7.93
2018-04-01T04:03:36.692Z,8.10
2018-04-01T04:08:28.631Z,8.03
2018-04-01T04:13:20.632Z,7.57
2018-04-01T04:18:11.807Z,7.20
2018-04-01T04:23:03.746Z,7.80
2018-04-01T04:27:54.983Z,7.93
2018-04-01T04:32:47.023Z,8.03
2018-04-01T04:37:38.971Z,7.50
2018-04-01T04:42:30.885Z,7.37
2018-04-01T04:47:22.082Z,7.73
2018-04-01T04:52:13.301Z,8.13
2018-04-01T04:57:04.452Z,8.43
2018-04-01T05:01:55.649Z,8.57
2018-04-01T05:06:46.804Z,9.10
2018-04-01T05:11:37.986Z,9.37
2018-04-01T05:16:29.155Z,10.30
2018-04-01T05:21:20.364Z,9.33
2018-04-01T05:26:11.566Z,8.73
2018-04-01T05:31:02.750Z,8.50
2018-04-01T05:35:53.979Z,8.10
2018-04-01T05:40:45.165Z,7.60
2018-04-01T05:45:36.397Z,7.87
2018-04-01T05:50:27.600Z,7.73
2018-04-01T05:55:18.786Z,9.10
2018-04-01T06:00:10.222Z,9.93
2018-04-01T06:05:01.457Z,10.03
2018-04-01T06:09:53.401Z,9.53
2018-04-01T06:14:44.590Z,9.47
2018-04-01T06:19:35.787Z,9.67
2018-04-01T06:24:26.953Z,9.57
2018-04-01T06:29:18.872Z,9.67
2018-04-01T06:34:10.704Z,9.73
2018-04-01T06:39:01.889Z,9.20
2018-04-01T06:43:53.873Z,9.50
2018-04-01T06:48:45.102Z,9.03
2018-04-01T06:53:36.242Z,8.43
2018-04-01T06:58:27.408Z,6.60
2018-04-01T07:03:19.326Z,5.73
2018-04-01T07:08:10.512Z,6.30
2018-04-01T07:13:01.668Z,5.50
2018-04-01T07:17:52.850Z,5.13
2018-04-01T07:22:44.056Z,3.80
2018-04-01T07:27:36.092Z,2.67
2018-04-01T07:32:27.278Z,2.40
2018-04-01T07:37:18.511Z,2.80
2018-04-01T07:42:09.695Z,3.90
2018-04-01T07:47:01.635Z,5.50
2018-04-01T07:51:53.552Z,5.57
2018-04-01T07:56:44.815Z,6.20
2018-04-01T08:01:36.686Z,7.00
2018-04-01T08:06:27.852Z,7.40
2018-04-01T08:11:19.010Z,7.67
2018-04-01T08:16:10.994Z,8.10
2018-04-01T08:21:02.164Z,7.17
2018-04-01T08:25:54.055Z,7.83
2018-04-01T08:30:45.265Z,8.43
2018-04-01T08:35:36.482Z,8.90
2018-04-01T08:40:27.703Z,9.97
2018-04-01T08:45:18.918Z,9.73
2018-04-01T08:50:10.851Z,10.30
2018-04-01T08:55:02.049Z,11.20
2018-04-01T08:59:53.230Z,12.17
2018-04-01T09:04:45.189Z,14.13
2018-04-01T09:09:36.379Z,14.80
2018-04-01T09:14:28.318Z,15.10
2018-04-01T09:19:20.258Z,17.97
2018-04-01T09:24:12.199Z,15.40
2018-04-01T09:29:03.381Z,14.77
2018-04-01T09:33:54.791Z,13.50
2018-04-01T09:38:46.087Z,12.90
2018-04-01T09:43:37.321Z,11.93
2018-04-01T09:48:29.221Z,11.80
2018-04-01T09:53:20.423Z,11.20
2018-04-01T09:58:11.593Z,11.37
2018-04-01T10:03:02.974Z,11.17
2018-04-01T10:07:54.347Z,11.50
2018-04-01T10:12:45.866Z,12.23
2018-04-01T10:17:37.282Z,12.63
2018-04-01T10:22:28.714Z,12.17
2018-04-01T10:27:20.093Z,13.17
2018-04-01T10:32:12.519Z,13.47
2018-04-01T10:37:04.608Z,13.17
2018-04-01T10:41:55.962Z,14.13
2018-04-01T10:46:47.355Z,15.53
2018-04-01T10:51:39.546Z,16.17
2018-04-01T10:56:30.751Z,16.73
2018-04-01T11:01:22.671Z,16.80
2018-04-01T11:06:13.849Z,16.13
2018-04-01T11:11:05.044Z,16.67
2018-04-01T11:15:56.966Z,15.87
2018-04-01T11:20:48.203Z,15.33
2018-04-01T11:25:40.143Z,16.17
2018-04-01T11:30:32.068Z,15.33
2018-04-01T11:35:23.240Z,16.33
2018-04-01T11:40:14.453Z,15.53
2018-04-01T11:45:06.384Z,16.87
2018-04-01T11:49:58.330Z,17.07
2018-04-01T11:54:51.147Z,15.73
2018-04-01T11:59:42.334Z,16.37
2018-04-01T12:04:34.293Z,15.57
2018-04-01T12:09:25.552Z,16.03
2018-04-01T12:14:16.678Z,17.33
2018-04-01T12:19:07.883Z,17.77
2018-04-01T12:23:59.090Z,19.00
2018-04-01T12:28:51.001Z,17.67
2018-04-01T12:33:42.215Z,18.80
2018-04-01T12:38:34.122Z,19.20
2018-04-01T12:43:25.338Z,18.60
2018-04-01T12:48:16.526Z,20.23
2018-04-01T12:53:08.539Z,20.83
2018-04-01T12:58:00.523Z,19.97
2018-04-01T13:02:52.466Z,20.57
2018-04-01T13:07:44.366Z,20.43
2018-04-01T13:12:35.551Z,21.97
2018-04-01T13:17:27.441Z,20.50
2018-04-01T13:22:18.666Z,20.13
2018-04-01T13:27:09.803Z,21.27
2018-04-01T13:32:01.012Z,19.00
2018-04-01T13:36:52.245Z,19.97
2018-04-01T13:41:43.407Z,19.03
2018-04-01T13:46:34.670Z,18.67
2018-04-01T13:51:27.624Z,18.27
2018-04-01T13:56:21.253Z,16.63
2018-04-01T14:01:12.494Z,18.10
2018-04-01T14:06:03.673Z,17.57
2018-04-01T14:10:54.879Z,16.33
2018-04-01T14:15:46.779Z,16.83
2018-04-01T14:20:37.994Z,17.87
2018-04-01T14:25:29.190Z,17.43
2018-04-01T14:30:21.265Z,17.13
2018-04-01T14:35:13.206Z,18.13
2018-04-01T14:40:04.418Z,21.13
2018-04-01T14:44:55.591Z,20.43
2018-04-01T14:49:46.755Z,23.53
2018-04-01T14:54:37.932Z,23.50
2018-04-01T14:59:29.168Z,21.53
2018-04-01T15:04:21.101Z,19.87
2018-04-01T15:09:12.233Z,20.30
2018-04-01T15:14:04.176Z,16.43
2018-04-01T15:18:55.385Z,14.47
2018-04-01T15:23:46.577Z,11.67
2018-04-01T15:28:37.777Z,8.57
2018-04-01T15:33:29.817Z,8.37
2018-04-01T15:38:20.971Z,9.27
2018-04-01T15:43:13.018Z,9.47
2018-04-01T15:48:04.189Z,9.60
2018-04-01T15:52:55.423Z,9.77
2018-04-01T15:57:47.422Z,10.77
2018-04-01T16:02:38.610Z,10.67
2018-04-01T16:07:29.779Z,10.70
2018-04-01T16:12:21.010Z,12.27
2018-04-01T16:17:12.156Z,12.80
2018-04-01T16:22:03.353Z,13.40
2018-04-01T16:26:54.579Z,13.60
2018-04-01T16:31:45.781Z,13.80
2018-04-01T16:36:37.710Z,15.67
2018-04-01T16:41:30.390Z,15.97
2018-04-01T16:46:22.332Z,15.80
2018-04-01T16:51:13.525Z,15.77
2018-04-01T16:56:04.729Z,15.80
2018-04-01T17:00:55.918Z,16.07
2018-04-01T17:05:47.114Z,15.67
2018-04-01T17:10:39.081Z,15.97
2018-04-01T17:15:31.008Z,16.57
2018-04-01T17:20:22.198Z,17.57
2018-04-01T17:25:13.394Z,16.83
2018-04-01T17:30:04.580Z,16.17
2018-04-01T17:34:55.768Z,16.80
2018-04-01T17:39:46.956Z,17.00
2018-04-01T17:44:38.868Z,16.73
2018-04-01T17:49:30.035Z,17.17
2018-04-01T17:54:21.204Z,18.00
2018-04-01T17:59:12.411Z,18.40
2018-04-01T18:04:03.645Z,16.60
2018-04-01T18:08:54.813Z,17.00
2018-04-01T18:13:46.762Z,16.73
2018-04-01T18:18:38.703Z,17.67
2018-04-01T18:23:30.653Z,17.20
2018-04-01T18:28:22.582Z,18.00
2018-04-01T18:33:13.783Z,17.23
2018-04-01T18:38:04.977Z,18.03
2018-04-01T18:42:56.172Z,16.97
2018-04-01T18:47:48.110Z,19.00
2018-04-01T18:52:40.049Z,18.63
2018-04-01T18:57:32.709Z,19.37
2018-04-01T19:02:25.396Z,21.40
2018-04-01T19:07:17.336Z,21.10
2018-04-01T19:12:08.538Z,21.97
2018-04-01T19:17:07.156Z,22.13
2018-04-01T19:21:59.327Z,21.83
2018-04-01T19:26:50.696Z,22.73
2018-04-01T19:31:42.079Z,23.47
2018-04-01T19:36:33.452Z,22.43
2018-04-01T19:41:24.848Z,22.63
2018-04-01T19:46:16.238Z,24.03
2018-04-01T19:51:07.711Z,25.93
2018-04-01T19:55:59.184Z,29.57
2018-04-01T20:00:50.632Z,29.67
2018-04-01T20:05:43.530Z,32.23
2018-04-01T20:10:34.987Z,31.43
2018-04-01T20:15:26.510Z,33.73
2018-04-01T20:20:17.878Z,32.50
2018-04-01T20:25:09.767Z,34.70
2018-04-01T20:30:01.159Z,34.30
2018-04-01T20:34:54.059Z,34.50
2018-04-01T20:39:46.760Z,33.93
2018-04-01T20:44:38.170Z,36.57
2018-04-01T20:49:29.569Z,39.50
2018-04-01T20:54:21.698Z,40.77
2018-04-01T20:59:13.104Z,40.97
2018-04-01T21:04:04.469Z,43.10
2018-04-01T21:08:56.604Z,46.53
2018-04-01T21:13:47.987Z,46.33
2018-04-01T21:18:40.359Z,51.50
2018-04-01T21:23:31.929Z,48.43
2018-04-01T21:28:24.150Z,51.53
2018-04-01T21:33:15.558Z,52.90
2018-04-01T21:38:07.246Z,53.60
2018-04-01T21:42:58.766Z,57.20
2018-04-01T21:47:50.777Z,56.67
2018-04-01T21:52:42.241Z,56.43
2018-04-01T21:57:33.867Z,54.50
2018-04-01T22:02:25.478Z,54.63
2018-04-01T22:07:16.957Z,54.97
2018-04-01T22:12:08.369Z,52.10
2018-04-01T22:16:59.789Z,54.43
2018-04-01T22:21:51.211Z,54.23
2018-04-01T22:26:42.651Z,56.10
2018-04-01T22:31:34.156Z,55.90
2018-04-01T22:36:26.326Z,51.40
2018-04-01T22:41:17.751Z,53.47
2018-04-01T22:46:09.124Z,54.43
2018-04-01T22:51:00.524Z,52.30
2018-04-01T22:55:52.118Z,55.30
2018-04-01T23:00:44.668Z,55.03
2018-04-01T23:05:37.524Z,56.10
2018-04-01T23:10:28.935Z,56.70
2018-04-01T23:15:20.360Z,56.40
2018-04-01T23:20:11.766Z,53.33
2018-04-01T23:25:03.211Z,56.83
2018-04-01T23:29:54.716Z,57.67
2018-04-01T23:34:46.825Z,59.77
2018-04-01T23:39:38.290Z,58.13
2018-04-01T23:44:30.430Z,57.57
2018-04-01T23:49:23.463Z,57.30
2018-04-01T23:54:14.869Z,57.17
2018-04-01T23:59:06.309Z,55.13
